sensor_id;sensor_type;location;lat;lon;timestamp;P1;durP1;ratioP1;P2;durP2;ratioP2
14704;SDS011;7442;50.840;3.396;2024-03-06T00:00:31;2.70;;;2.50;;
14704;SDS011;7442;50.840;3.396;2024-03-06T00:03:04;4.00;;;2.40;;
14704;SDS011;7442;50.840;3.396;2024-03-06T00:05:34;2.45;;;2.25;;
14704;SDS011;7442;50.840;3.396;2024-03-06T00:08:04;3.05;;;2.52;;
14704;SDS011;7442;50.840;3.396;2024-03-06T00:10:34;2.50;;;2.22;;
14704;SDS011;7442;50.840;3.396;2024-03-06T00:13:04;2.30;;;2.00;;
14704;SDS011;7442;50.840;3.396;2024-03-06T00:15:34;3.80;;;2.62;;
14704;SDS011;7442;50.840;3.396;2024-03-06T00:18:05;3.05;;;2.50;;
14704;SDS011;7442;50.840;3.396;2024-03-06T00:20:35;2.72;;;2.30;;
14704;SDS011;7442;50.840;3.396;2024-03-06T00:23:06;2.75;;;2.47;;
14704;SDS011;7442;50.840;3.396;2024-03-06T00:25:37;3.72;;;2.55;;
14704;SDS011;7442;50.840;3.396;2024-03-06T00:28:07;3.40;;;2.35;;
14704;SDS011;7442;50.840;3.396;2024-03-06T00:30:37;2.55;;;2.35;;
14704;SDS011;7442;50.840;3.396;2024-03-06T00:33:07;2.60;;;2.40;;
14704;SDS011;7442;50.840;3.396;2024-03-06T00:35:39;2.30;;;2.10;;
14704;SDS011;7442;50.840;3.396;2024-03-06T00:38:09;2.40;;;2.12;;
14704;SDS011;7442;50.840;3.396;2024-03-06T00:40:39;2.52;;;2.25;;
14704;SDS011;7442;50.840;3.396;2024-03-06T00:43:09;2.45;;;2.25;;
14704;SDS011;7442;50.840;3.396;2024-03-06T00:45:39;4.78;;;2.50;;
14704;SDS011;7442;50.840;3.396;2024-03-06T00:48:09;2.77;;;2.37;;
14704;SDS011;7442;50.840;3.396;2024-03-06T00:50:39;3.10;;;2.42;;
14704;SDS011;7442;50.840;3.396;2024-03-06T00:53:09;2.37;;;2.15;;
14704;SDS011;7442;50.840;3.396;2024-03-06T00:55:40;2.40;;;2.08;;
14704;SDS011;7442;50.840;3.396;2024-03-06T00:58:10;2.70;;;2.15;;
14704;SDS011;7442;50.840;3.396;2024-03-06T01:00:40;2.60;;;2.40;;
14704;SDS011;7442;50.840;3.396;2024-03-06T01:03:10;2.58;;;2.10;;
14704;SDS011;7442;50.840;3.396;2024-03-06T01:05:40;2.35;;;2.12;;
14704;SDS011;7442;50.840;3.396;2024-03-06T01:08:10;2.22;;;2.02;;
14704;SDS011;7442;50.840;3.396;2024-03-06T01:10:40;2.75;;;2.30;;
14704;SDS011;7442;50.840;3.396;2024-03-06T01:13:10;2.72;;;2.52;;
14704;SDS011;7442;50.840;3.396;2024-03-06T01:15:40;2.87;;;2.10;;
14704;SDS011;7442;50.840;3.396;2024-03-06T01:18:11;3.22;;;2.27;;
14704;SDS011;7442;50.840;3.396;2024-03-06T01:20:41;2.55;;;2.00;;
14704;SDS011;7442;50.840;3.396;2024-03-06T01:23:11;2.50;;;2.27;;
14704;SDS011;7442;50.840;3.396;2024-03-06T01:25:41;1.90;;;1.80;;
14704;SDS011;7442;50.840;3.396;2024-03-06T01:28:11;2.92;;;1.95;;
14704;SDS011;7442;50.840;3.396;2024-03-06T01:30:41;2.20;;;2.00;;
14704;SDS011;7442;50.840;3.396;2024-03-06T01:33:11;2.50;;;2.00;;
14704;SDS011;7442;50.840;3.396;2024-03-06T01:35:41;3.12;;;2.00;;
14704;SDS011;7442;50.840;3.396;2024-03-06T01:38:11;2.67;;;2.00;;
14704;SDS011;7442;50.840;3.396;2024-03-06T01:40:45;2.52;;;2.22;;
14704;SDS011;7442;50.840;3.396;2024-03-06T01:43:21;2.20;;;2.00;;
14704;SDS011;7442;50.840;3.396;2024-03-06T01:45:53;2.30;;;2.10;;
14704;SDS011;7442;50.840;3.396;2024-03-06T01:48:23;2.30;;;2.10;;
14704;SDS011;7442;50.840;3.396;2024-03-06T01:50:56;3.00;;;2.00;;
14704;SDS011;7442;50.840;3.396;2024-03-06T01:53:28;2.33;;;1.92;;
14704;SDS011;7442;50.840;3.396;2024-03-06T01:56:00;3.20;;;2.17;;
14704;SDS011;7442;50.840;3.396;2024-03-06T01:58:32;2.47;;;2.00;;
14704;SDS011;7442;50.840;3.396;2024-03-06T02:01:02;2.20;;;2.00;;
14704;SDS011;7442;50.840;3.396;2024-03-06T02:03:33;2.98;;;2.08;;
14704;SDS011;7442;50.840;3.396;2024-03-06T02:06:03;2.47;;;2.17;;
14704;SDS011;7442;50.840;3.396;2024-03-06T02:08:35;2.20;;;2.00;;
14704;SDS011;7442;50.840;3.396;2024-03-06T02:11:05;4.12;;;2.27;;
14704;SDS011;7442;50.840;3.396;2024-03-06T02:13:35;2.30;;;2.12;;
14704;SDS011;7442;50.840;3.396;2024-03-06T02:16:05;1.98;;;1.80;;
14704;SDS011;7442;50.840;3.396;2024-03-06T02:18:36;2.05;;;1.85;;
14704;SDS011;7442;50.840;3.396;2024-03-06T02:21:07;2.77;;;2.08;;
14704;SDS011;7442;50.840;3.396;2024-03-06T02:23:37;2.70;;;2.10;;
14704;SDS011;7442;50.840;3.396;2024-03-06T02:26:09;1.90;;;1.70;;
14704;SDS011;7442;50.840;3.396;2024-03-06T02:28:46;1.82;;;1.70;;
14704;SDS011;7442;50.840;3.396;2024-03-06T02:31:21;2.33;;;2.10;;
14704;SDS011;7442;50.840;3.396;2024-03-06T02:33:51;2.35;;;1.65;;
14704;SDS011;7442;50.840;3.396;2024-03-06T02:36:21;2.40;;;2.20;;
14704;SDS011;7442;50.840;3.396;2024-03-06T02:38:51;2.00;;;1.80;;
14704;SDS011;7442;50.840;3.396;2024-03-06T02:41:21;2.40;;;2.15;;
14704;SDS011;7442;50.840;3.396;2024-03-06T02:43:51;2.02;;;1.82;;
14704;SDS011;7442;50.840;3.396;2024-03-06T02:46:21;2.02;;;1.70;;
14704;SDS011;7442;50.840;3.396;2024-03-06T02:48:52;2.50;;;2.02;;
14704;SDS011;7442;50.840;3.396;2024-03-06T02:51:23;2.20;;;2.00;;
14704;SDS011;7442;50.840;3.396;2024-03-06T02:53:53;2.10;;;1.77;;
14704;SDS011;7442;50.840;3.396;2024-03-06T02:56:23;2.37;;;1.95;;
14704;SDS011;7442;50.840;3.396;2024-03-06T02:58:53;2.60;;;2.00;;
14704;SDS011;7442;50.840;3.396;2024-03-06T03:01:23;2.10;;;1.90;;
14704;SDS011;7442;50.840;3.396;2024-03-06T03:03:53;2.25;;;1.85;;
14704;SDS011;7442;50.840;3.396;2024-03-06T03:06:24;2.08;;;1.87;;
14704;SDS011;7442;50.840;3.396;2024-03-06T03:08:54;2.15;;;1.95;;
14704;SDS011;7442;50.840;3.396;2024-03-06T03:11:24;2.20;;;2.00;;
14704;SDS011;7442;50.840;3.396;2024-03-06T03:13:54;2.62;;;2.25;;
14704;SDS011;7442;50.840;3.396;2024-03-06T03:16:25;2.00;;;1.80;;
14704;SDS011;7442;50.840;3.396;2024-03-06T03:18:55;2.20;;;1.90;;
14704;SDS011;7442;50.840;3.396;2024-03-06T03:21:25;3.05;;;2.25;;
14704;SDS011;7442;50.840;3.396;2024-03-06T03:23:55;1.90;;;1.80;;
14704;SDS011;7442;50.840;3.396;2024-03-06T03:26:25;1.85;;;1.75;;
14704;SDS011;7442;50.840;3.396;2024-03-06T03:28:55;2.12;;;1.92;;
14704;SDS011;7442;50.840;3.396;2024-03-06T03:31:25;2.10;;;1.85;;
14704;SDS011;7442;50.840;3.396;2024-03-06T03:33:55;1.55;;;1.40;;
14704;SDS011;7442;50.840;3.396;2024-03-06T03:36:25;2.40;;;2.20;;
14704;SDS011;7442;50.840;3.396;2024-03-06T03:38:55;2.12;;;1.70;;
14704;SDS011;7442;50.840;3.396;2024-03-06T03:41:25;2.10;;;1.90;;
14704;SDS011;7442;50.840;3.396;2024-03-06T03:43:55;1.60;;;1.50;;
14704;SDS011;7442;50.840;3.396;2024-03-06T03:46:25;2.10;;;1.80;;
14704;SDS011;7442;50.840;3.396;2024-03-06T03:48:57;2.37;;;2.12;;
14704;SDS011;7442;50.840;3.396;2024-03-06T03:51:27;2.27;;;1.65;;
14704;SDS011;7442;50.840;3.396;2024-03-06T03:53:58;1.92;;;1.80;;
14704;SDS011;7442;50.840;3.396;2024-03-06T03:56:28;1.92;;;1.72;;
14704;SDS011;7442;50.840;3.396;2024-03-06T03:58:58;1.80;;;1.70;;
14704;SDS011;7442;50.840;3.396;2024-03-06T04:01:28;2.30;;;1.80;;
14704;SDS011;7442;50.840;3.396;2024-03-06T04:03:58;2.92;;;1.77;;
14704;SDS011;7442;50.840;3.396;2024-03-06T04:06:28;1.70;;;1.60;;
14704;SDS011;7442;50.840;3.396;2024-03-06T04:08:58;2.02;;;1.85;;
14704;SDS011;7442;50.840;3.396;2024-03-06T04:11:28;2.02;;;1.60;;
14704;SDS011;7442;50.840;3.396;2024-03-06T04:13:58;2.12;;;1.92;;
14704;SDS011;7442;50.840;3.396;2024-03-06T04:16:29;1.80;;;1.70;;
14704;SDS011;7442;50.840;3.396;2024-03-06T04:18:59;1.70;;;1.37;;
14704;SDS011;7442;50.840;3.396;2024-03-06T04:21:29;1.87;;;1.77;;
14704;SDS011;7442;50.840;3.396;2024-03-06T04:23:59;2.00;;;1.70;;
14704;SDS011;7442;50.840;3.396;2024-03-06T04:26:29;1.75;;;1.65;;
14704;SDS011;7442;50.840;3.396;2024-03-06T04:28:59;1.70;;;1.60;;
14704;SDS011;7442;50.840;3.396;2024-03-06T04:31:29;1.70;;;1.60;;
14704;SDS011;7442;50.840;3.396;2024-03-06T04:33:59;1.90;;;1.70;;
14704;SDS011;7442;50.840;3.396;2024-03-06T04:36:29;1.70;;;1.60;;
14704;SDS011;7442;50.840;3.396;2024-03-06T04:38:59;1.55;;;1.45;;
14704;SDS011;7442;50.840;3.396;2024-03-06T04:41:29;2.08;;;1.70;;
14704;SDS011;7442;50.840;3.396;2024-03-06T04:43:59;1.90;;;1.70;;
14704;SDS011;7442;50.840;3.396;2024-03-06T04:46:29;1.80;;;1.70;;
14704;SDS011;7442;50.840;3.396;2024-03-06T04:48:59;2.00;;;1.80;;
14704;SDS011;7442;50.840;3.396;2024-03-06T04:51:30;2.17;;;1.75;;
14704;SDS011;7442;50.840;3.396;2024-03-06T04:54:00;1.67;;;1.57;;
14704;SDS011;7442;50.840;3.396;2024-03-06T04:56:30;2.47;;;1.82;;
14704;SDS011;7442;50.840;3.396;2024-03-06T04:59:00;1.72;;;1.62;;
14704;SDS011;7442;50.840;3.396;2024-03-06T05:01:31;2.20;;;1.75;;
14704;SDS011;7442;50.840;3.396;2024-03-06T05:04:01;2.45;;;1.90;;
14704;SDS011;7442;50.840;3.396;2024-03-06T05:06:32;1.65;;;1.55;;
14704;SDS011;7442;50.840;3.396;2024-03-06T05:09:03;1.72;;;1.62;;
14704;SDS011;7442;50.840;3.396;2024-03-06T05:11:34;2.20;;;1.92;;
14704;SDS011;7442;50.840;3.396;2024-03-06T05:14:04;2.58;;;1.70;;
14704;SDS011;7442;50.840;3.396;2024-03-06T05:16:34;1.60;;;1.50;;
14704;SDS011;7442;50.840;3.396;2024-03-06T05:19:04;1.75;;;1.60;;
14704;SDS011;7442;50.840;3.396;2024-03-06T05:21:34;1.55;;;1.45;;
14704;SDS011;7442;50.840;3.396;2024-03-06T05:24:04;1.70;;;1.60;;
14704;SDS011;7442;50.840;3.396;2024-03-06T05:26:34;3.60;;;1.80;;
14704;SDS011;7442;50.840;3.396;2024-03-06T05:29:04;1.90;;;1.80;;
14704;SDS011;7442;50.840;3.396;2024-03-06T05:31:34;2.30;;;1.70;;
14704;SDS011;7442;50.840;3.396;2024-03-06T05:34:04;1.95;;;1.62;;
14704;SDS011;7442;50.840;3.396;2024-03-06T05:36:34;2.00;;;1.80;;
14704;SDS011;7442;50.840;3.396;2024-03-06T05:39:05;3.42;;;2.27;;
14704;SDS011;7442;50.840;3.396;2024-03-06T05:41:39;1.75;;;1.65;;
14704;SDS011;7442;50.840;3.396;2024-03-06T05:44:10;1.80;;;1.70;;
14704;SDS011;7442;50.840;3.396;2024-03-06T05:46:40;1.95;;;1.75;;
14704;SDS011;7442;50.840;3.396;2024-03-06T05:49:10;1.75;;;1.65;;
14704;SDS011;7442;50.840;3.396;2024-03-06T05:51:40;2.02;;;1.40;;
14704;SDS011;7442;50.840;3.396;2024-03-06T05:54:10;1.60;;;1.50;;
14704;SDS011;7442;50.840;3.396;2024-03-06T05:56:40;1.60;;;1.50;;
14704;SDS011;7442;50.840;3.396;2024-03-06T05:59:10;1.87;;;1.72;;
14704;SDS011;7442;50.840;3.396;2024-03-06T06:01:41;1.85;;;1.62;;
14704;SDS011;7442;50.840;3.396;2024-03-06T06:04:12;1.50;;;1.40;;
14704;SDS011;7442;50.840;3.396;2024-03-06T06:06:43;1.72;;;1.62;;
14704;SDS011;7442;50.840;3.396;2024-03-06T06:09:13;1.92;;;1.62;;
14704;SDS011;7442;50.840;3.396;2024-03-06T06:11:44;1.80;;;1.70;;
14704;SDS011;7442;50.840;3.396;2024-03-06T06:14:15;5.12;;;1.67;;
14704;SDS011;7442;50.840;3.396;2024-03-06T06:16:45;3.65;;;1.80;;
14704;SDS011;7442;50.840;3.396;2024-03-06T06:19:15;1.82;;;1.55;;
14704;SDS011;7442;50.840;3.396;2024-03-06T06:21:46;2.90;;;1.82;;
14704;SDS011;7442;50.840;3.396;2024-03-06T06:24:16;1.85;;;1.70;;
14704;SDS011;7442;50.840;3.396;2024-03-06T06:26:46;6.80;;;1.70;;
14704;SDS011;7442;50.840;3.396;2024-03-06T06:29:16;1.72;;;1.57;;
14704;SDS011;7442;50.840;3.396;2024-03-06T06:31:48;1.80;;;1.70;;
14704;SDS011;7442;50.840;3.396;2024-03-06T06:34:18;2.27;;;1.65;;
14704;SDS011;7442;50.840;3.396;2024-03-06T06:36:48;2.65;;;1.80;;
14704;SDS011;7442;50.840;3.396;2024-03-06T06:39:19;1.95;;;1.67;;
14704;SDS011;7442;50.840;3.396;2024-03-06T06:41:50;4.50;;;1.82;;
14704;SDS011;7442;50.840;3.396;2024-03-06T06:44:20;4.12;;;1.85;;
14704;SDS011;7442;50.840;3.396;2024-03-06T06:46:50;3.98;;;1.70;;
14704;SDS011;7442;50.840;3.396;2024-03-06T06:49:20;3.08;;;1.72;;
14704;SDS011;7442;50.840;3.396;2024-03-06T06:51:50;1.47;;;1.27;;
14704;SDS011;7442;50.840;3.396;2024-03-06T06:54:20;2.72;;;1.57;;
14704;SDS011;7442;50.840;3.396;2024-03-06T06:56:50;2.67;;;1.85;;
14704;SDS011;7442;50.840;3.396;2024-03-06T06:59:20;6.17;;;1.98;;
14704;SDS011;7442;50.840;3.396;2024-03-06T07:01:51;5.53;;;1.80;;
14704;SDS011;7442;50.840;3.396;2024-03-06T07:04:22;4.70;;;1.82;;
14704;SDS011;7442;50.840;3.396;2024-03-06T07:06:53;2.52;;;1.95;;
14704;SDS011;7442;50.840;3.396;2024-03-06T07:09:23;3.05;;;1.90;;
14704;SDS011;7442;50.840;3.396;2024-03-06T07:11:53;5.17;;;2.10;;
14704;SDS011;7442;50.840;3.396;2024-03-06T07:14:24;2.15;;;1.60;;
14704;SDS011;7442;50.840;3.396;2024-03-06T07:16:54;2.75;;;1.70;;
14704;SDS011;7442;50.840;3.396;2024-03-06T07:19:24;3.35;;;1.60;;
14704;SDS011;7442;50.840;3.396;2024-03-06T07:21:54;2.00;;;1.80;;
14704;SDS011;7442;50.840;3.396;2024-03-06T07:24:25;2.27;;;1.62;;
14704;SDS011;7442;50.840;3.396;2024-03-06T07:26:55;2.83;;;1.90;;
14704;SDS011;7442;50.840;3.396;2024-03-06T07:29:25;2.92;;;1.65;;
14704;SDS011;7442;50.840;3.396;2024-03-06T07:31:55;3.72;;;1.80;;
14704;SDS011;7442;50.840;3.396;2024-03-06T07:34:25;1.75;;;1.65;;
14704;SDS011;7442;50.840;3.396;2024-03-06T07:36:55;2.92;;;1.42;;
14704;SDS011;7442;50.840;3.396;2024-03-06T07:39:27;2.75;;;1.82;;
14704;SDS011;7442;50.840;3.396;2024-03-06T07:41:58;3.50;;;1.85;;
14704;SDS011;7442;50.840;3.396;2024-03-06T07:44:28;2.62;;;2.05;;
14704;SDS011;7442;50.840;3.396;2024-03-06T07:46:58;3.98;;;1.70;;
14704;SDS011;7442;50.840;3.396;2024-03-06T07:49:28;2.47;;;1.70;;
14704;SDS011;7442;50.840;3.396;2024-03-06T07:51:59;3.42;;;1.80;;
14704;SDS011;7442;50.840;3.396;2024-03-06T07:54:29;3.58;;;1.70;;
14704;SDS011;7442;50.840;3.396;2024-03-06T07:57:01;5.78;;;1.80;;
14704;SDS011;7442;50.840;3.396;2024-03-06T07:59:31;4.90;;;2.00;;
14704;SDS011;7442;50.840;3.396;2024-03-06T08:02:01;3.90;;;1.90;;
14704;SDS011;7442;50.840;3.396;2024-03-06T08:04:33;6.30;;;1.90;;
14704;SDS011;7442;50.840;3.396;2024-03-06T08:07:03;2.60;;;1.60;;
14704;SDS011;7442;50.840;3.396;2024-03-06T08:09:33;3.52;;;1.90;;
14704;SDS011;7442;50.840;3.396;2024-03-06T08:12:04;3.83;;;1.70;;
14704;SDS011;7442;50.840;3.396;2024-03-06T08:14:34;2.33;;;1.52;;
14704;SDS011;7442;50.840;3.396;2024-03-06T08:17:04;3.37;;;1.77;;
14704;SDS011;7442;50.840;3.396;2024-03-06T08:19:35;3.02;;;1.90;;
14704;SDS011;7442;50.840;3.396;2024-03-06T08:22:05;4.58;;;1.70;;
14704;SDS011;7442;50.840;3.396;2024-03-06T08:24:36;4.70;;;1.55;;
14704;SDS011;7442;50.840;3.396;2024-03-06T08:27:06;2.47;;;1.77;;
14704;SDS011;7442;50.840;3.396;2024-03-06T08:29:36;3.00;;;1.72;;
14704;SDS011;7442;50.840;3.396;2024-03-06T08:32:06;2.30;;;1.67;;
14704;SDS011;7442;50.840;3.396;2024-03-06T08:34:37;4.28;;;1.90;;
14704;SDS011;7442;50.840;3.396;2024-03-06T08:37:07;7.70;;;2.60;;
14704;SDS011;7442;50.840;3.396;2024-03-06T08:39:37;5.20;;;2.47;;
14704;SDS011;7442;50.840;3.396;2024-03-06T08:42:08;7.22;;;2.58;;
14704;SDS011;7442;50.840;3.396;2024-03-06T08:44:39;8.40;;;2.58;;
14704;SDS011;7442;50.840;3.396;2024-03-06T08:47:10;3.95;;;2.30;;
14704;SDS011;7442;50.840;3.396;2024-03-06T08:49:41;4.28;;;2.15;;
14704;SDS011;7442;50.840;3.396;2024-03-06T08:52:12;4.37;;;2.12;;
14704;SDS011;7442;50.840;3.396;2024-03-06T08:54:43;7.78;;;2.52;;
14704;SDS011;7442;50.840;3.396;2024-03-06T08:57:19;2.40;;;2.02;;
14704;SDS011;7442;50.840;3.396;2024-03-06T08:59:50;5.33;;;2.20;;
14704;SDS011;7442;50.840;3.396;2024-03-06T09:02:20;4.28;;;2.70;;
14704;SDS011;7442;50.840;3.396;2024-03-06T09:04:50;7.28;;;2.60;;
14704;SDS011;7442;50.840;3.396;2024-03-06T09:07:21;4.50;;;2.02;;
14704;SDS011;7442;50.840;3.396;2024-03-06T09:09:54;3.10;;;2.02;;
14704;SDS011;7442;50.840;3.396;2024-03-06T09:12:25;4.90;;;2.30;;
14704;SDS011;7442;50.840;3.396;2024-03-06T09:14:55;5.22;;;2.70;;
14704;SDS011;7442;50.840;3.396;2024-03-06T09:17:25;4.85;;;2.20;;
14704;SDS011;7442;50.840;3.396;2024-03-06T09:19:55;5.40;;;2.37;;
14704;SDS011;7442;50.840;3.396;2024-03-06T09:22:25;7.75;;;2.15;;
14704;SDS011;7442;50.840;3.396;2024-03-06T09:24:55;7.00;;;2.70;;
14704;SDS011;7442;50.840;3.396;2024-03-06T09:27:25;4.90;;;2.37;;
14704;SDS011;7442;50.840;3.396;2024-03-06T09:29:55;5.35;;;2.25;;
14704;SDS011;7442;50.840;3.396;2024-03-06T09:32:25;2.87;;;1.90;;
14704;SDS011;7442;50.840;3.396;2024-03-06T09:34:55;4.80;;;2.02;;
14704;SDS011;7442;50.840;3.396;2024-03-06T09:37:25;3.60;;;2.37;;
14704;SDS011;7442;50.840;3.396;2024-03-06T09:39:55;6.08;;;2.30;;
14704;SDS011;7442;50.840;3.396;2024-03-06T09:42:25;5.37;;;2.80;;
14704;SDS011;7442;50.840;3.396;2024-03-06T09:44:56;5.22;;;2.90;;
14704;SDS011;7442;50.840;3.396;2024-03-06T09:47:26;11.50;;;3.35;;
14704;SDS011;7442;50.840;3.396;2024-03-06T09:49:59;6.50;;;3.08;;
14704;SDS011;7442;50.840;3.396;2024-03-06T09:52:31;7.83;;;3.27;;
14704;SDS011;7442;50.840;3.396;2024-03-06T09:55:03;10.25;;;4.15;;
14704;SDS011;7442;50.840;3.396;2024-03-06T09:57:35;10.28;;;4.15;;
14704;SDS011;7442;50.840;3.396;2024-03-06T10:00:05;9.68;;;4.20;;
14704;SDS011;7442;50.840;3.396;2024-03-06T10:02:51;12.28;;;4.87;;
14704;SDS011;7442;50.840;3.396;2024-03-06T10:05:28;16.50;;;4.75;;
14704;SDS011;7442;50.840;3.396;2024-03-06T10:08:00;9.38;;;4.12;;
14704;SDS011;7442;50.840;3.396;2024-03-06T10:10:32;13.45;;;4.78;;
14704;SDS011;7442;50.840;3.396;2024-03-06T10:13:02;11.15;;;4.30;;
14704;SDS011;7442;50.840;3.396;2024-03-06T10:15:37;10.45;;;4.37;;
14704;SDS011;7442;50.840;3.396;2024-03-06T10:18:15;12.43;;;4.50;;
14704;SDS011;7442;50.840;3.396;2024-03-06T10:20:46;6.33;;;3.87;;
14704;SDS011;7442;50.840;3.396;2024-03-06T10:23:16;8.63;;;3.83;;
14704;SDS011;7442;50.840;3.396;2024-03-06T10:25:47;8.05;;;3.83;;
14704;SDS011;7442;50.840;3.396;2024-03-06T10:28:22;6.50;;;3.42;;
14704;SDS011;7442;50.840;3.396;2024-03-06T10:31:02;12.63;;;3.67;;
14704;SDS011;7442;50.840;3.396;2024-03-06T10:33:26;5.85;;;3.20;;
14704;SDS011;7442;50.840;3.396;2024-03-06T10:35:57;7.45;;;3.72;;
14704;SDS011;7442;50.840;3.396;2024-03-06T10:38:27;5.75;;;2.87;;
14704;SDS011;7442;50.840;3.396;2024-03-06T10:41:00;8.18;;;3.40;;
14704;SDS011;7442;50.840;3.396;2024-03-06T10:43:31;7.87;;;3.00;;
14704;SDS011;7442;50.840;3.396;2024-03-06T10:46:04;6.33;;;2.90;;
14704;SDS011;7442;50.840;3.396;2024-03-06T10:48:35;7.03;;;2.95;;
14704;SDS011;7442;50.840;3.396;2024-03-06T10:51:07;5.83;;;3.02;;
14704;SDS011;7442;50.840;3.396;2024-03-06T10:53:38;5.62;;;2.87;;
14704;SDS011;7442;50.840;3.396;2024-03-06T10:56:10;11.50;;;3.33;;
14704;SDS011;7442;50.840;3.396;2024-03-06T10:58:41;6.53;;;3.05;;
14704;SDS011;7442;50.840;3.396;2024-03-06T11:01:11;8.68;;;2.55;;
14704;SDS011;7442;50.840;3.396;2024-03-06T11:03:43;7.25;;;2.87;;
14704;SDS011;7442;50.840;3.396;2024-03-06T11:06:14;16.12;;;3.47;;
14704;SDS011;7442;50.840;3.396;2024-03-06T11:08:46;8.18;;;2.90;;
14704;SDS011;7442;50.840;3.396;2024-03-06T11:11:19;13.05;;;3.25;;
14704;SDS011;7442;50.840;3.396;2024-03-06T11:13:55;11.15;;;2.80;;
14704;SDS011;7442;50.840;3.396;2024-03-06T11:16:31;11.08;;;3.10;;
14704;SDS011;7442;50.840;3.396;2024-03-06T11:19:06;12.75;;;3.02;;
14704;SDS011;7442;50.840;3.396;2024-03-06T11:21:46;32.33;;;4.92;;
14704;SDS011;7442;50.840;3.396;2024-03-06T11:24:23;13.40;;;3.25;;
14704;SDS011;7442;50.840;3.396;2024-03-06T11:27:03;19.87;;;3.45;;
14704;SDS011;7442;50.840;3.396;2024-03-06T11:32:59;19.87;;;3.37;;
14704;SDS011;7442;50.840;3.396;2024-03-06T11:35:30;15.98;;;3.00;;
14704;SDS011;7442;50.840;3.396;2024-03-06T11:38:00;14.55;;;3.60;;
14704;SDS011;7442;50.840;3.396;2024-03-06T11:40:31;17.70;;;3.35;;
14704;SDS011;7442;50.840;3.396;2024-03-06T11:43:21;12.98;;;2.65;;
14704;SDS011;7442;50.840;3.396;2024-03-06T11:45:50;12.03;;;3.58;;
14704;SDS011;7442;50.840;3.396;2024-03-06T11:48:20;16.55;;;2.77;;
14704;SDS011;7442;50.840;3.396;2024-03-06T11:50:50;11.83;;;2.52;;
14704;SDS011;7442;50.840;3.396;2024-03-06T11:53:21;7.60;;;2.80;;
14704;SDS011;7442;50.840;3.396;2024-03-06T11:55:53;17.27;;;3.47;;
14704;SDS011;7442;50.840;3.396;2024-03-06T11:58:24;16.97;;;3.30;;
14704;SDS011;7442;50.840;3.396;2024-03-06T12:00:54;14.35;;;3.08;;
14704;SDS011;7442;50.840;3.396;2024-03-06T12:03:25;17.55;;;3.00;;
14704;SDS011;7442;50.840;3.396;2024-03-06T12:05:56;15.95;;;2.90;;
14704;SDS011;7442;50.840;3.396;2024-03-06T12:08:27;9.60;;;2.67;;
14704;SDS011;7442;50.840;3.396;2024-03-06T12:10:57;11.38;;;2.85;;
14704;SDS011;7442;50.840;3.396;2024-03-06T12:13:34;10.60;;;2.67;;
14704;SDS011;7442;50.840;3.396;2024-03-06T12:16:07;12.60;;;2.80;;
14704;SDS011;7442;50.840;3.396;2024-03-06T12:18:38;6.95;;;2.25;;
14704;SDS011;7442;50.840;3.396;2024-03-06T12:21:10;6.83;;;2.62;;
14704;SDS011;7442;50.840;3.396;2024-03-06T12:23:40;18.25;;;2.67;;
14704;SDS011;7442;50.840;3.396;2024-03-06T12:26:12;16.02;;;2.72;;
14704;SDS011;7442;50.840;3.396;2024-03-06T12:28:42;19.30;;;2.87;;
14704;SDS011;7442;50.840;3.396;2024-03-06T12:31:12;12.25;;;2.60;;
14704;SDS011;7442;50.840;3.396;2024-03-06T12:33:42;15.53;;;3.35;;
14704;SDS011;7442;50.840;3.396;2024-03-06T12:36:12;13.18;;;2.50;;
14704;SDS011;7442;50.840;3.396;2024-03-06T12:38:43;13.35;;;2.27;;
14704;SDS011;7442;50.840;3.396;2024-03-06T12:41:13;12.37;;;2.58;;
14704;SDS011;7442;50.840;3.396;2024-03-06T12:43:43;8.10;;;2.40;;
14704;SDS011;7442;50.840;3.396;2024-03-06T12:46:13;11.15;;;2.83;;
14704;SDS011;7442;50.840;3.396;2024-03-06T12:48:43;8.95;;;2.27;;
14704;SDS011;7442;50.840;3.396;2024-03-06T12:51:13;9.48;;;2.15;;
14704;SDS011;7442;50.840;3.396;2024-03-06T12:53:43;6.87;;;1.87;;
14704;SDS011;7442;50.840;3.396;2024-03-06T12:56:13;12.10;;;2.42;;
14704;SDS011;7442;50.840;3.396;2024-03-06T12:58:43;10.03;;;2.15;;
14704;SDS011;7442;50.840;3.396;2024-03-06T13:01:13;13.28;;;2.17;;
14704;SDS011;7442;50.840;3.396;2024-03-06T13:03:43;7.97;;;2.25;;
14704;SDS011;7442;50.840;3.396;2024-03-06T13:06:13;10.98;;;2.42;;
14704;SDS011;7442;50.840;3.396;2024-03-06T13:08:43;8.15;;;2.05;;
14704;SDS011;7442;50.840;3.396;2024-03-06T13:11:13;6.22;;;1.98;;
14704;SDS011;7442;50.840;3.396;2024-03-06T13:13:44;12.60;;;2.47;;
14704;SDS011;7442;50.840;3.396;2024-03-06T13:16:14;9.68;;;2.72;;
14704;SDS011;7442;50.840;3.396;2024-03-06T13:18:44;12.25;;;2.25;;
14704;SDS011;7442;50.840;3.396;2024-03-06T13:21:14;9.20;;;2.02;;
14704;SDS011;7442;50.840;3.396;2024-03-06T13:23:44;10.78;;;2.20;;
14704;SDS011;7442;50.840;3.396;2024-03-06T13:26:14;11.53;;;2.22;;
14704;SDS011;7442;50.840;3.396;2024-03-06T13:28:46;14.28;;;2.08;;
14704;SDS011;7442;50.840;3.396;2024-03-06T13:31:16;13.93;;;2.20;;
14704;SDS011;7442;50.840;3.396;2024-03-06T13:33:47;10.85;;;2.17;;
14704;SDS011;7442;50.840;3.396;2024-03-06T13:36:17;16.42;;;2.25;;
14704;SDS011;7442;50.840;3.396;2024-03-06T13:38:49;8.10;;;2.62;;
14704;SDS011;7442;50.840;3.396;2024-03-06T13:41:20;18.95;;;2.62;;
14704;SDS011;7442;50.840;3.396;2024-03-06T13:43:50;4.80;;;1.80;;
14704;SDS011;7442;50.840;3.396;2024-03-06T13:46:20;10.08;;;2.20;;
14704;SDS011;7442;50.840;3.396;2024-03-06T13:48:50;10.20;;;2.22;;
14704;SDS011;7442;50.840;3.396;2024-03-06T13:51:20;9.00;;;1.95;;
14704;SDS011;7442;50.840;3.396;2024-03-06T13:53:50;9.35;;;2.10;;
14704;SDS011;7442;50.840;3.396;2024-03-06T13:56:20;12.95;;;2.20;;
14704;SDS011;7442;50.840;3.396;2024-03-06T13:58:50;13.18;;;2.45;;
14704;SDS011;7442;50.840;3.396;2024-03-06T14:01:23;6.95;;;2.05;;
14704;SDS011;7442;50.840;3.396;2024-03-06T14:03:52;9.50;;;2.15;;
14704;SDS011;7442;50.840;3.396;2024-03-06T14:06:22;8.40;;;2.35;;
14704;SDS011;7442;50.840;3.396;2024-03-06T14:08:52;12.15;;;2.20;;
14704;SDS011;7442;50.840;3.396;2024-03-06T14:11:23;13.75;;;2.25;;
14704;SDS011;7442;50.840;3.396;2024-03-06T14:13:54;10.25;;;2.10;;
14704;SDS011;7442;50.840;3.396;2024-03-06T14:16:24;13.40;;;2.22;;
14704;SDS011;7442;50.840;3.396;2024-03-06T14:18:55;12.90;;;2.60;;
14704;SDS011;7442;50.840;3.396;2024-03-06T14:21:25;19.50;;;2.75;;
14704;SDS011;7442;50.840;3.396;2024-03-06T14:23:59;28.40;;;3.42;;
14704;SDS011;7442;50.840;3.396;2024-03-06T14:26:34;15.78;;;2.65;;
14704;SDS011;7442;50.840;3.396;2024-03-06T14:29:05;14.65;;;2.08;;
14704;SDS011;7442;50.840;3.396;2024-03-06T14:31:39;15.77;;;2.60;;
14704;SDS011;7442;50.840;3.396;2024-03-06T14:34:09;18.48;;;2.37;;
14704;SDS011;7442;50.840;3.396;2024-03-06T14:36:39;15.98;;;2.70;;
14704;SDS011;7442;50.840;3.396;2024-03-06T14:39:10;18.67;;;2.55;;
14704;SDS011;7442;50.840;3.396;2024-03-06T14:41:41;10.70;;;2.50;;
14704;SDS011;7442;50.840;3.396;2024-03-06T14:44:13;18.32;;;2.83;;
14704;SDS011;7442;50.840;3.396;2024-03-06T14:46:43;13.62;;;2.65;;
14704;SDS011;7442;50.840;3.396;2024-03-06T14:49:13;16.10;;;2.50;;
14704;SDS011;7442;50.840;3.396;2024-03-06T14:51:45;15.70;;;2.25;;
14704;SDS011;7442;50.840;3.396;2024-03-06T14:54:15;9.05;;;1.90;;
14704;SDS011;7442;50.840;3.396;2024-03-06T14:56:45;14.03;;;2.65;;
14704;SDS011;7442;50.840;3.396;2024-03-06T14:59:15;10.75;;;2.20;;
14704;SDS011;7442;50.840;3.396;2024-03-06T15:01:45;13.62;;;2.30;;
14704;SDS011;7442;50.840;3.396;2024-03-06T15:04:16;21.87;;;2.05;;
14704;SDS011;7442;50.840;3.396;2024-03-06T15:06:46;15.18;;;2.67;;
14704;SDS011;7442;50.840;3.396;2024-03-06T15:09:16;10.35;;;2.17;;
14704;SDS011;7442;50.840;3.396;2024-03-06T15:11:48;14.85;;;2.60;;
14704;SDS011;7442;50.840;3.396;2024-03-06T15:14:20;10.08;;;2.08;;
14704;SDS011;7442;50.840;3.396;2024-03-06T15:16:50;9.73;;;2.30;;
14704;SDS011;7442;50.840;3.396;2024-03-06T15:19:20;7.40;;;2.25;;
14704;SDS011;7442;50.840;3.396;2024-03-06T15:21:50;6.78;;;2.27;;